Terminal Aerodrome Forecast
Issued by NWS

Home | Current Version | Previous Version | Text Only | Print | Product List | Glossary On
Versions: 1 2 3 4 5 6 7 8 9 10 11 12 13 14 15 16
000
FTUS45 KRIW 201803 AAA
TAFJAC
TAF AMD
KJAC 201803Z 2018/2118 22011KT 1SM -SN SCT005 OVC018
      TEMPO 2018/2021 OVC005
     FM202100 20014G20KT 1SM -SN OVC005
     FM210300 20012G22KT 2SM -SNRA OVC011
     FM210900 20019G29KT 4SM -RASN OVC010
     FM211400 20026G36KT 4SM -RASN OVC008
      AMD LTD TO CLD VIS AND WIND=

USA.gov is the U.S. government's official web portal to all federal, state and local government web resources and services.